sensor_id;sensor_type;location;lat;lon;timestamp;P1;durP1;ratioP1;P2;durP2;ratioP2
25359;SDS011;13311;51.386;0.016;2023-04-19T00:04:53;38.58;;;20.98;;
25359;SDS011;13311;51.386;0.016;2023-04-19T00:09:54;37.50;;;20.42;;
25359;SDS011;13311;51.386;0.016;2023-04-19T00:14:55;46.35;;;21.05;;
25359;SDS011;13311;51.386;0.016;2023-04-19T00:19:56;43.33;;;21.25;;
25359;SDS011;13311;51.386;0.016;2023-04-19T00:24:57;41.78;;;21.48;;
25359;SDS011;13311;51.386;0.016;2023-04-19T00:29:57;34.80;;;21.23;;
25359;SDS011;13311;51.386;0.016;2023-04-19T00:34:58;40.85;;;21.13;;
25359;SDS011;13311;51.386;0.016;2023-04-19T00:39:59;38.22;;;19.98;;
25359;SDS011;13311;51.386;0.016;2023-04-19T00:44:59;43.28;;;21.10;;
25359;SDS011;13311;51.386;0.016;2023-04-19T00:50:01;40.13;;;21.42;;
25359;SDS011;13311;51.386;0.016;2023-04-19T00:55:03;45.03;;;21.10;;
25359;SDS011;13311;51.386;0.016;2023-04-19T01:00:05;38.47;;;20.63;;
25359;SDS011;13311;51.386;0.016;2023-04-19T01:05:09;36.55;;;20.90;;
25359;SDS011;13311;51.386;0.016;2023-04-19T01:10:09;40.83;;;21.27;;
25359;SDS011;13311;51.386;0.016;2023-04-19T01:15:10;42.28;;;22.35;;
25359;SDS011;13311;51.386;0.016;2023-04-19T01:20:11;44.67;;;22.02;;
25359;SDS011;13311;51.386;0.016;2023-04-19T01:25:12;36.47;;;21.33;;
25359;SDS011;13311;51.386;0.016;2023-04-19T01:30:13;34.17;;;21.25;;
25359;SDS011;13311;51.386;0.016;2023-04-19T01:35:14;39.65;;;21.95;;
25359;SDS011;13311;51.386;0.016;2023-04-19T01:40:15;43.03;;;21.92;;
25359;SDS011;13311;51.386;0.016;2023-04-19T01:45:16;37.63;;;20.23;;
25359;SDS011;13311;51.386;0.016;2023-04-19T01:50:16;35.60;;;20.67;;
25359;SDS011;13311;51.386;0.016;2023-04-19T01:55:17;32.25;;;19.88;;
25359;SDS011;13311;51.386;0.016;2023-04-19T02:00:18;40.10;;;22.08;;
25359;SDS011;13311;51.386;0.016;2023-04-19T02:05:19;40.97;;;20.80;;
25359;SDS011;13311;51.386;0.016;2023-04-19T02:10:20;38.22;;;22.17;;
25359;SDS011;13311;51.386;0.016;2023-04-19T02:15:21;44.63;;;24.13;;
25359;SDS011;13311;51.386;0.016;2023-04-19T02:20:22;40.25;;;22.80;;
25359;SDS011;13311;51.386;0.016;2023-04-19T02:25:24;40.58;;;25.42;;
25359;SDS011;13311;51.386;0.016;2023-04-19T02:30:24;40.88;;;25.17;;
25359;SDS011;13311;51.386;0.016;2023-04-19T02:35:25;44.45;;;26.70;;
25359;SDS011;13311;51.386;0.016;2023-04-19T02:40:26;41.90;;;27.17;;
25359;SDS011;13311;51.386;0.016;2023-04-19T02:45:27;47.80;;;26.60;;
25359;SDS011;13311;51.386;0.016;2023-04-19T02:50:27;49.35;;;27.92;;
25359;SDS011;13311;51.386;0.016;2023-04-19T02:55:28;39.72;;;25.33;;
25359;SDS011;13311;51.386;0.016;2023-04-19T03:00:29;43.38;;;26.63;;
25359;SDS011;13311;51.386;0.016;2023-04-19T03:05:30;41.42;;;26.70;;
25359;SDS011;13311;51.386;0.016;2023-04-19T03:10:30;45.92;;;28.92;;
25359;SDS011;13311;51.386;0.016;2023-04-19T03:15:31;48.10;;;29.58;;
25359;SDS011;13311;51.386;0.016;2023-04-19T03:20:32;47.40;;;29.85;;
25359;SDS011;13311;51.386;0.016;2023-04-19T03:25:33;50.22;;;31.02;;
25359;SDS011;13311;51.386;0.016;2023-04-19T03:30:34;44.03;;;29.92;;
25359;SDS011;13311;51.386;0.016;2023-04-19T03:35:34;46.30;;;31.42;;
25359;SDS011;13311;51.386;0.016;2023-04-19T03:40:38;50.25;;;33.00;;
25359;SDS011;13311;51.386;0.016;2023-04-19T03:45:39;62.33;;;33.30;;
25359;SDS011;13311;51.386;0.016;2023-04-19T03:50:39;47.83;;;32.83;;
25359;SDS011;13311;51.386;0.016;2023-04-19T03:55:40;58.72;;;34.35;;
25359;SDS011;13311;51.386;0.016;2023-04-19T04:00:41;50.20;;;33.45;;
25359;SDS011;13311;51.386;0.016;2023-04-19T04:05:41;58.20;;;34.47;;
25359;SDS011;13311;51.386;0.016;2023-04-19T04:10:42;58.35;;;35.22;;
25359;SDS011;13311;51.386;0.016;2023-04-19T04:15:43;52.65;;;35.63;;
25359;SDS011;13311;51.386;0.016;2023-04-19T04:20:44;59.17;;;35.97;;
25359;SDS011;13311;51.386;0.016;2023-04-19T04:25:44;54.15;;;34.33;;
25359;SDS011;13311;51.386;0.016;2023-04-19T04:30:46;53.33;;;35.38;;
25359;SDS011;13311;51.386;0.016;2023-04-19T04:35:47;48.55;;;34.08;;
25359;SDS011;13311;51.386;0.016;2023-04-19T04:40:51;60.17;;;36.47;;
25359;SDS011;13311;51.386;0.016;2023-04-19T04:45:53;49.03;;;34.15;;
25359;SDS011;13311;51.386;0.016;2023-04-19T04:50:54;55.97;;;34.63;;
25359;SDS011;13311;51.386;0.016;2023-04-19T04:55:55;49.70;;;34.47;;
25359;SDS011;13311;51.386;0.016;2023-04-19T05:00:56;57.53;;;36.05;;
25359;SDS011;13311;51.386;0.016;2023-04-19T05:05:56;52.22;;;37.50;;
25359;SDS011;13311;51.386;0.016;2023-04-19T05:10:57;50.90;;;35.13;;
25359;SDS011;13311;51.386;0.016;2023-04-19T05:15:58;53.30;;;35.78;;
25359;SDS011;13311;51.386;0.016;2023-04-19T05:20:59;51.13;;;33.83;;
25359;SDS011;13311;51.386;0.016;2023-04-19T05:25:59;54.63;;;34.33;;
25359;SDS011;13311;51.386;0.016;2023-04-19T05:31:00;49.75;;;35.22;;
25359;SDS011;13311;51.386;0.016;2023-04-19T05:36:01;52.40;;;34.83;;
25359;SDS011;13311;51.386;0.016;2023-04-19T05:41:02;59.35;;;35.30;;
25359;SDS011;13311;51.386;0.016;2023-04-19T05:46:03;52.50;;;34.35;;
25359;SDS011;13311;51.386;0.016;2023-04-19T05:51:04;49.85;;;34.28;;
25359;SDS011;13311;51.386;0.016;2023-04-19T05:56:05;52.05;;;35.30;;
25359;SDS011;13311;51.386;0.016;2023-04-19T06:01:06;50.00;;;33.28;;
25359;SDS011;13311;51.386;0.016;2023-04-19T06:06:07;48.75;;;30.80;;
25359;SDS011;13311;51.386;0.016;2023-04-19T06:11:07;46.28;;;30.60;;
25359;SDS011;13311;51.386;0.016;2023-04-19T06:16:08;42.13;;;28.30;;
25359;SDS011;13311;51.386;0.016;2023-04-19T06:21:09;36.45;;;25.67;;
25359;SDS011;13311;51.386;0.016;2023-04-19T06:26:10;39.70;;;25.75;;
25359;SDS011;13311;51.386;0.016;2023-04-19T06:31:10;36.72;;;23.80;;
25359;SDS011;13311;51.386;0.016;2023-04-19T06:36:11;33.60;;;23.55;;
25359;SDS011;13311;51.386;0.016;2023-04-19T06:41:12;31.35;;;21.92;;
25359;SDS011;13311;51.386;0.016;2023-04-19T06:46:13;33.15;;;20.98;;
25359;SDS011;13311;51.386;0.016;2023-04-19T06:51:14;30.90;;;20.83;;
25359;SDS011;13311;51.386;0.016;2023-04-19T06:56:15;32.80;;;21.45;;
25359;SDS011;13311;51.386;0.016;2023-04-19T07:01:16;36.80;;;21.85;;
25359;SDS011;13311;51.386;0.016;2023-04-19T07:06:17;34.80;;;21.85;;
25359;SDS011;13311;51.386;0.016;2023-04-19T07:11:18;33.90;;;22.77;;
25359;SDS011;13311;51.386;0.016;2023-04-19T07:16:19;32.80;;;23.05;;
25359;SDS011;13311;51.386;0.016;2023-04-19T07:21:20;31.33;;;21.40;;
25359;SDS011;13311;51.386;0.016;2023-04-19T07:26:24;35.35;;;23.70;;
25359;SDS011;13311;51.386;0.016;2023-04-19T07:31:25;39.70;;;22.98;;
25359;SDS011;13311;51.386;0.016;2023-04-19T07:36:26;36.90;;;26.00;;
25359;SDS011;13311;51.386;0.016;2023-04-19T07:41:27;34.08;;;24.20;;
25359;SDS011;13311;51.386;0.016;2023-04-19T07:46:28;34.53;;;26.50;;
25359;SDS011;13311;51.386;0.016;2023-04-19T07:51:29;48.00;;;26.42;;
25359;SDS011;13311;51.386;0.016;2023-04-19T07:56:30;40.67;;;26.30;;
25359;SDS011;13311;51.386;0.016;2023-04-19T08:01:31;33.40;;;24.17;;
25359;SDS011;13311;51.386;0.016;2023-04-19T08:06:32;37.42;;;25.88;;
25359;SDS011;13311;51.386;0.016;2023-04-19T08:11:32;39.65;;;25.55;;
25359;SDS011;13311;51.386;0.016;2023-04-19T08:16:33;37.67;;;24.77;;
25359;SDS011;13311;51.386;0.016;2023-04-19T08:21:34;37.58;;;24.80;;
25359;SDS011;13311;51.386;0.016;2023-04-19T08:26:35;32.15;;;23.67;;
25359;SDS011;13311;51.386;0.016;2023-04-19T08:31:38;32.80;;;23.42;;
25359;SDS011;13311;51.386;0.016;2023-04-19T08:36:38;34.97;;;23.27;;
25359;SDS011;13311;51.386;0.016;2023-04-19T08:41:39;41.47;;;25.85;;
25359;SDS011;13311;51.386;0.016;2023-04-19T08:46:40;38.30;;;25.50;;
25359;SDS011;13311;51.386;0.016;2023-04-19T08:51:42;33.70;;;22.98;;
25359;SDS011;13311;51.386;0.016;2023-04-19T08:56:43;29.98;;;21.20;;
25359;SDS011;13311;51.386;0.016;2023-04-19T09:01:44;40.15;;;23.95;;
25359;SDS011;13311;51.386;0.016;2023-04-19T09:06:45;36.80;;;22.33;;
25359;SDS011;13311;51.386;0.016;2023-04-19T09:11:46;35.17;;;23.48;;
25359;SDS011;13311;51.386;0.016;2023-04-19T09:16:47;32.42;;;22.63;;
25359;SDS011;13311;51.386;0.016;2023-04-19T09:21:50;36.33;;;24.52;;
25359;SDS011;13311;51.386;0.016;2023-04-19T09:26:53;39.85;;;24.15;;
25359;SDS011;13311;51.386;0.016;2023-04-19T09:31:55;33.50;;;21.70;;
25359;SDS011;13311;51.386;0.016;2023-04-19T09:37:10;32.38;;;21.83;;
25359;SDS011;13311;51.386;0.016;2023-04-19T09:42:12;31.73;;;23.77;;
25359;SDS011;13311;51.386;0.016;2023-04-19T09:47:25;32.03;;;22.45;;
25359;SDS011;13311;51.386;0.016;2023-04-19T09:52:29;34.40;;;22.58;;
25359;SDS011;13311;51.386;0.016;2023-04-19T09:57:31;30.27;;;19.20;;
25359;SDS011;13311;51.386;0.016;2023-04-19T10:02:33;27.75;;;19.48;;
25359;SDS011;13311;51.386;0.016;2023-04-19T10:07:35;28.52;;;18.00;;
25359;SDS011;13311;51.386;0.016;2023-04-19T10:12:36;30.15;;;18.48;;
25359;SDS011;13311;51.386;0.016;2023-04-19T10:17:38;31.15;;;19.02;;
25359;SDS011;13311;51.386;0.016;2023-04-19T10:22:39;26.60;;;17.15;;
25359;SDS011;13311;51.386;0.016;2023-04-19T10:27:41;25.75;;;18.35;;
25359;SDS011;13311;51.386;0.016;2023-04-19T10:32:51;24.08;;;17.98;;
25359;SDS011;13311;51.386;0.016;2023-04-19T10:38:10;31.27;;;17.10;;
25359;SDS011;13311;51.386;0.016;2023-04-19T10:43:15;30.02;;;18.48;;
25359;SDS011;13311;51.386;0.016;2023-04-19T11:04:23;28.95;;;15.45;;
25359;SDS011;13311;51.386;0.016;2023-04-19T11:09:31;24.10;;;13.80;;
25359;SDS011;13311;51.386;0.016;2023-04-19T11:14:41;25.47;;;14.00;;
25359;SDS011;13311;51.386;0.016;2023-04-19T11:25:10;22.55;;;14.63;;
25359;SDS011;13311;51.386;0.016;2023-04-19T11:30:21;21.45;;;13.57;;
25359;SDS011;13311;51.386;0.016;2023-04-19T11:35:28;28.00;;;14.25;;
25359;SDS011;13311;51.386;0.016;2023-04-19T11:40:29;20.17;;;13.38;;
25359;SDS011;13311;51.386;0.016;2023-04-19T11:45:32;18.80;;;13.27;;
25359;SDS011;13311;51.386;0.016;2023-04-19T12:00:48;19.77;;;13.27;;
25359;SDS011;13311;51.386;0.016;2023-04-19T12:05:55;19.17;;;13.13;;
25359;SDS011;13311;51.386;0.016;2023-04-19T12:10:58;24.00;;;13.50;;
25359;SDS011;13311;51.386;0.016;2023-04-19T12:16:00;19.30;;;13.55;;
25359;SDS011;13311;51.386;0.016;2023-04-19T12:21:02;20.60;;;13.32;;
25359;SDS011;13311;51.386;0.016;2023-04-19T12:26:05;16.63;;;11.15;;
25359;SDS011;13311;51.386;0.016;2023-04-19T12:31:06;19.13;;;12.70;;
25359;SDS011;13311;51.386;0.016;2023-04-19T12:36:07;15.13;;;9.95;;
25359;SDS011;13311;51.386;0.016;2023-04-19T12:41:08;16.92;;;9.55;;
25359;SDS011;13311;51.386;0.016;2023-04-19T12:46:09;13.57;;;8.05;;
25359;SDS011;13311;51.386;0.016;2023-04-19T12:51:09;11.20;;;7.75;;
25359;SDS011;13311;51.386;0.016;2023-04-19T12:56:10;9.88;;;6.55;;
25359;SDS011;13311;51.386;0.016;2023-04-19T13:01:11;14.55;;;9.25;;
25359;SDS011;13311;51.386;0.016;2023-04-19T13:06:12;10.38;;;7.05;;
25359;SDS011;13311;51.386;0.016;2023-04-19T13:11:14;14.32;;;8.52;;
25359;SDS011;13311;51.386;0.016;2023-04-19T13:16:16;16.88;;;7.85;;
25359;SDS011;13311;51.386;0.016;2023-04-19T13:21:18;13.23;;;7.57;;
25359;SDS011;13311;51.386;0.016;2023-04-19T13:26:19;12.85;;;8.07;;
25359;SDS011;13311;51.386;0.016;2023-04-19T13:31:19;14.70;;;9.50;;
25359;SDS011;13311;51.386;0.016;2023-04-19T13:36:20;18.00;;;7.93;;
25359;SDS011;13311;51.386;0.016;2023-04-19T13:41:21;18.27;;;9.73;;
25359;SDS011;13311;51.386;0.016;2023-04-19T13:46:22;15.57;;;9.13;;
25359;SDS011;13311;51.386;0.016;2023-04-19T13:51:23;17.02;;;9.80;;
25359;SDS011;13311;51.386;0.016;2023-04-19T13:56:25;19.08;;;11.73;;
25359;SDS011;13311;51.386;0.016;2023-04-19T14:01:26;24.38;;;11.68;;
25359;SDS011;13311;51.386;0.016;2023-04-19T14:06:27;20.40;;;11.70;;
25359;SDS011;13311;51.386;0.016;2023-04-19T14:11:27;24.25;;;10.98;;
25359;SDS011;13311;51.386;0.016;2023-04-19T14:16:29;23.88;;;10.45;;
25359;SDS011;13311;51.386;0.016;2023-04-19T14:21:30;20.52;;;10.05;;
25359;SDS011;13311;51.386;0.016;2023-04-19T14:26:30;20.30;;;10.02;;
25359;SDS011;13311;51.386;0.016;2023-04-19T14:31:31;19.52;;;10.05;;
25359;SDS011;13311;51.386;0.016;2023-04-19T14:36:33;18.40;;;10.18;;
25359;SDS011;13311;51.386;0.016;2023-04-19T14:41:34;19.02;;;9.45;;
25359;SDS011;13311;51.386;0.016;2023-04-19T14:46:34;25.73;;;9.88;;
25359;SDS011;13311;51.386;0.016;2023-04-19T14:51:35;20.48;;;9.45;;
25359;SDS011;13311;51.386;0.016;2023-04-19T14:56:36;18.90;;;8.55;;
25359;SDS011;13311;51.386;0.016;2023-04-19T15:01:37;16.23;;;9.60;;
25359;SDS011;13311;51.386;0.016;2023-04-19T15:06:38;27.42;;;9.57;;
25359;SDS011;13311;51.386;0.016;2023-04-19T15:11:39;21.48;;;8.52;;
25359;SDS011;13311;51.386;0.016;2023-04-19T15:16:40;17.17;;;8.07;;
25359;SDS011;13311;51.386;0.016;2023-04-19T15:21:42;22.40;;;8.60;;
25359;SDS011;13311;51.386;0.016;2023-04-19T15:26:42;18.42;;;9.32;;
25359;SDS011;13311;51.386;0.016;2023-04-19T15:31:43;14.70;;;8.68;;
25359;SDS011;13311;51.386;0.016;2023-04-19T15:36:44;17.55;;;8.77;;
25359;SDS011;13311;51.386;0.016;2023-04-19T15:41:44;25.58;;;8.10;;
25359;SDS011;13311;51.386;0.016;2023-04-19T15:46:45;24.08;;;7.15;;
25359;SDS011;13311;51.386;0.016;2023-04-19T15:51:46;14.43;;;7.43;;
25359;SDS011;13311;51.386;0.016;2023-04-19T15:56:47;18.90;;;7.47;;
25359;SDS011;13311;51.386;0.016;2023-04-19T16:01:47;20.48;;;7.20;;
25359;SDS011;13311;51.386;0.016;2023-04-19T16:06:48;17.60;;;6.93;;
25359;SDS011;13311;51.386;0.016;2023-04-19T16:11:50;16.25;;;7.25;;
25359;SDS011;13311;51.386;0.016;2023-04-19T16:16:50;16.83;;;6.40;;
25359;SDS011;13311;51.386;0.016;2023-04-19T16:21:52;12.00;;;5.63;;
25359;SDS011;13311;51.386;0.016;2023-04-19T16:26:53;16.20;;;5.40;;
25359;SDS011;13311;51.386;0.016;2023-04-19T16:31:53;11.80;;;5.00;;
25359;SDS011;13311;51.386;0.016;2023-04-19T16:36:54;7.97;;;4.97;;
25359;SDS011;13311;51.386;0.016;2023-04-19T16:41:55;8.43;;;4.10;;
25359;SDS011;13311;51.386;0.016;2023-04-19T16:46:56;13.35;;;4.82;;
25359;SDS011;13311;51.386;0.016;2023-04-19T16:51:57;11.80;;;4.75;;
25359;SDS011;13311;51.386;0.016;2023-04-19T16:56:57;13.95;;;4.93;;
25359;SDS011;13311;51.386;0.016;2023-04-19T17:01:58;14.48;;;5.15;;
25359;SDS011;13311;51.386;0.016;2023-04-19T17:06:59;10.50;;;4.68;;
25359;SDS011;13311;51.386;0.016;2023-04-19T17:12:00;8.60;;;5.03;;
25359;SDS011;13311;51.386;0.016;2023-04-19T17:17:01;9.00;;;5.10;;
25359;SDS011;13311;51.386;0.016;2023-04-19T17:22:01;9.55;;;5.00;;
25359;SDS011;13311;51.386;0.016;2023-04-19T17:27:04;19.63;;;5.38;;
25359;SDS011;13311;51.386;0.016;2023-04-19T17:32:05;19.80;;;5.80;;
25359;SDS011;13311;51.386;0.016;2023-04-19T17:37:06;11.75;;;4.57;;
25359;SDS011;13311;51.386;0.016;2023-04-19T17:42:07;11.27;;;4.78;;
25359;SDS011;13311;51.386;0.016;2023-04-19T17:47:08;15.63;;;5.30;;
25359;SDS011;13311;51.386;0.016;2023-04-19T17:52:08;11.55;;;5.07;;
25359;SDS011;13311;51.386;0.016;2023-04-19T17:57:09;8.95;;;4.97;;
25359;SDS011;13311;51.386;0.016;2023-04-19T18:02:10;15.68;;;6.07;;
25359;SDS011;13311;51.386;0.016;2023-04-19T18:07:10;14.90;;;4.80;;
25359;SDS011;13311;51.386;0.016;2023-04-19T18:12:11;9.32;;;5.38;;
25359;SDS011;13311;51.386;0.016;2023-04-19T18:17:12;12.15;;;5.25;;
25359;SDS011;13311;51.386;0.016;2023-04-19T18:22:13;12.50;;;5.07;;
25359;SDS011;13311;51.386;0.016;2023-04-19T18:27:13;14.98;;;4.97;;
25359;SDS011;13311;51.386;0.016;2023-04-19T18:32:14;12.65;;;4.82;;
25359;SDS011;13311;51.386;0.016;2023-04-19T18:37:15;16.60;;;5.40;;
25359;SDS011;13311;51.386;0.016;2023-04-19T18:42:16;17.23;;;5.82;;
25359;SDS011;13311;51.386;0.016;2023-04-19T18:47:17;14.30;;;5.55;;
25359;SDS011;13311;51.386;0.016;2023-04-19T18:52:17;15.25;;;5.03;;
25359;SDS011;13311;51.386;0.016;2023-04-19T18:57:18;25.40;;;5.30;;
25359;SDS011;13311;51.386;0.016;2023-04-19T19:02:19;13.15;;;4.35;;
25359;SDS011;13311;51.386;0.016;2023-04-19T19:07:20;18.48;;;5.15;;
25359;SDS011;13311;51.386;0.016;2023-04-19T19:12:21;19.85;;;4.18;;
25359;SDS011;13311;51.386;0.016;2023-04-19T19:17:22;15.70;;;4.82;;
25359;SDS011;13311;51.386;0.016;2023-04-19T19:22:25;14.55;;;3.92;;
25359;SDS011;13311;51.386;0.016;2023-04-19T19:27:25;19.90;;;4.70;;
25359;SDS011;13311;51.386;0.016;2023-04-19T19:32:26;12.85;;;3.47;;
25359;SDS011;13311;51.386;0.016;2023-04-19T19:37:27;15.10;;;3.95;;
25359;SDS011;13311;51.386;0.016;2023-04-19T19:42:28;15.75;;;4.38;;
25359;SDS011;13311;51.386;0.016;2023-04-19T19:47:29;16.02;;;3.67;;
25359;SDS011;13311;51.386;0.016;2023-04-19T19:52:33;8.77;;;3.67;;
25359;SDS011;13311;51.386;0.016;2023-04-19T19:57:34;12.40;;;3.95;;
25359;SDS011;13311;51.386;0.016;2023-04-19T20:02:36;13.75;;;4.38;;
25359;SDS011;13311;51.386;0.016;2023-04-19T20:07:38;11.60;;;4.30;;
25359;SDS011;13311;51.386;0.016;2023-04-19T20:12:41;9.15;;;3.40;;
25359;SDS011;13311;51.386;0.016;2023-04-19T20:17:42;18.40;;;3.78;;
25359;SDS011;13311;51.386;0.016;2023-04-19T20:22:44;15.55;;;3.70;;
25359;SDS011;13311;51.386;0.016;2023-04-19T20:27:44;9.95;;;3.25;;
25359;SDS011;13311;51.386;0.016;2023-04-19T20:32:45;12.60;;;4.00;;
25359;SDS011;13311;51.386;0.016;2023-04-19T20:37:48;15.07;;;3.38;;
25359;SDS011;13311;51.386;0.016;2023-04-19T20:42:49;12.30;;;3.63;;
25359;SDS011;13311;51.386;0.016;2023-04-19T20:47:50;9.55;;;2.65;;
25359;SDS011;13311;51.386;0.016;2023-04-19T20:52:53;14.85;;;3.17;;
25359;SDS011;13311;51.386;0.016;2023-04-19T20:57:53;10.93;;;3.50;;
25359;SDS011;13311;51.386;0.016;2023-04-19T21:02:54;13.18;;;3.40;;
25359;SDS011;13311;51.386;0.016;2023-04-19T21:07:55;7.80;;;2.50;;
25359;SDS011;13311;51.386;0.016;2023-04-19T21:12:55;7.38;;;3.28;;
25359;SDS011;13311;51.386;0.016;2023-04-19T21:17:56;10.35;;;3.03;;
25359;SDS011;13311;51.386;0.016;2023-04-19T21:22:57;11.85;;;3.00;;
25359;SDS011;13311;51.386;0.016;2023-04-19T21:27:59;12.15;;;3.85;;
25359;SDS011;13311;51.386;0.016;2023-04-19T21:33:00;12.30;;;3.08;;
25359;SDS011;13311;51.386;0.016;2023-04-19T21:38:00;13.35;;;3.35;;
25359;SDS011;13311;51.386;0.016;2023-04-19T21:43:01;12.52;;;3.13;;
25359;SDS011;13311;51.386;0.016;2023-04-19T21:48:02;10.55;;;3.00;;
25359;SDS011;13311;51.386;0.016;2023-04-19T21:53:03;14.18;;;4.13;;
25359;SDS011;13311;51.386;0.016;2023-04-19T21:58:04;9.35;;;3.08;;
25359;SDS011;13311;51.386;0.016;2023-04-19T22:03:05;17.55;;;3.75;;
25359;SDS011;13311;51.386;0.016;2023-04-19T22:08:06;11.40;;;2.97;;
25359;SDS011;13311;51.386;0.016;2023-04-19T22:13:06;16.60;;;3.80;;
25359;SDS011;13311;51.386;0.016;2023-04-19T22:18:07;13.63;;;3.45;;
25359;SDS011;13311;51.386;0.016;2023-04-19T22:23:08;18.00;;;3.92;;
25359;SDS011;13311;51.386;0.016;2023-04-19T22:28:09;15.32;;;3.78;;
25359;SDS011;13311;51.386;0.016;2023-04-19T22:33:10;12.10;;;3.38;;
25359;SDS011;13311;51.386;0.016;2023-04-19T22:38:10;10.25;;;3.17;;
25359;SDS011;13311;51.386;0.016;2023-04-19T22:43:12;12.25;;;3.15;;
25359;SDS011;13311;51.386;0.016;2023-04-19T22:48:13;17.48;;;3.95;;
25359;SDS011;13311;51.386;0.016;2023-04-19T22:53:14;11.45;;;3.55;;
25359;SDS011;13311;51.386;0.016;2023-04-19T22:58:15;9.80;;;3.45;;
25359;SDS011;13311;51.386;0.016;2023-04-19T23:03:17;11.27;;;3.90;;
25359;SDS011;13311;51.386;0.016;2023-04-19T23:08:18;9.15;;;3.08;;
25359;SDS011;13311;51.386;0.016;2023-04-19T23:13:19;12.75;;;3.47;;
25359;SDS011;13311;51.386;0.016;2023-04-19T23:18:20;16.27;;;3.70;;
25359;SDS011;13311;51.386;0.016;2023-04-19T23:23:21;16.92;;;3.85;;
25359;SDS011;13311;51.386;0.016;2023-04-19T23:28:22;14.70;;;3.78;;
25359;SDS011;13311;51.386;0.016;2023-04-19T23:33:22;15.38;;;3.10;;
25359;SDS011;13311;51.386;0.016;2023-04-19T23:38:23;15.27;;;3.90;;
25359;SDS011;13311;51.386;0.016;2023-04-19T23:43:24;11.38;;;3.80;;
25359;SDS011;13311;51.386;0.016;2023-04-19T23:48:24;13.50;;;3.33;;
25359;SDS011;13311;51.386;0.016;2023-04-19T23:53:25;15.25;;;3.20;;
25359;SDS011;13311;51.386;0.016;2023-04-19T23:58:26;12.38;;;3.40;;
